createdAt,value
2022-07-26T00:02:48.146Z,95643.47
2022-07-26T00:07:50.384Z,95650.34
2022-07-26T00:12:51.972Z,95652.88
2022-07-26T00:17:53.790Z,95662.00
2022-07-26T00:22:55.562Z,95658.66
2022-07-26T00:27:57.289Z,95663.47
2022-07-26T00:32:59.050Z,95662.63
2022-07-26T00:38:00.776Z,95664.66
2022-07-26T00:43:02.868Z,95664.84
2022-07-26T00:48:05.002Z,95665.84
2022-07-26T00:53:06.902Z,95665.25
2022-07-26T00:58:08.618Z,95663.72
2022-07-26T01:03:11.167Z,95659.34
2022-07-26T01:08:12.863Z,95658.78
2022-07-26T01:13:20.084Z,95662.06
2022-07-26T01:18:21.740Z,95661.03
2022-07-26T01:23:23.366Z,95653.91
2022-07-26T01:28:25.048Z,95653.34
2022-07-26T01:33:28.134Z,95657.63
2022-07-26T01:38:29.992Z,95650.72
2022-07-26T01:43:31.600Z,95636.97
2022-07-26T01:48:33.702Z,95637.19
2022-07-26T01:53:35.592Z,95629.00
2022-07-26T01:58:37.376Z,95624.41
2022-07-26T02:03:39.037Z,95634.00
2022-07-26T02:08:40.716Z,95629.91
2022-07-26T02:13:42.811Z,95625.03
2022-07-26T02:18:44.816Z,95618.88
2022-07-26T02:23:46.473Z,95618.81
2022-07-26T02:28:48.258Z,95616.22
2022-07-26T02:33:49.907Z,95640.03
2022-07-26T02:38:51.618Z,95634.88
2022-07-26T02:43:55.314Z,95632.28
2022-07-26T02:48:57.088Z,95636.84
2022-07-26T02:53:58.847Z,95633.75
2022-07-26T02:59:00.479Z,95626.06
2022-07-26T03:04:02.897Z,95627.56
2022-07-26T03:09:04.804Z,95639.44
2022-07-26T03:14:06.696Z,95630.69
2022-07-26T03:19:08.461Z,95638.53
2022-07-26T03:24:10.290Z,95651.66
2022-07-26T03:29:12.203Z,95650.06
2022-07-26T03:34:14.436Z,95654.59
2022-07-26T03:39:16.188Z,95651.97
2022-07-26T03:44:17.859Z,95648.66
2022-07-26T03:49:19.686Z,95660.25
2022-07-26T03:54:22.451Z,95656.41
2022-07-26T03:59:25.572Z,95665.28
2022-07-26T04:04:27.249Z,95667.03
2022-07-26T04:09:29.034Z,95665.19
2022-07-26T04:14:30.674Z,95663.38
2022-07-26T04:19:32.291Z,95663.38
2022-07-26T04:24:38.738Z,95662.63
2022-07-26T04:29:40.395Z,95673.03
2022-07-26T04:34:42.043Z,95673.97
2022-07-26T04:39:43.770Z,95672.44
2022-07-26T04:44:45.416Z,95681.28
2022-07-26T04:49:47.111Z,95680.25
2022-07-26T04:54:48.778Z,95687.09
2022-07-26T05:00:03.361Z,95690.34
2022-07-26T05:05:06.751Z,95690.84
2022-07-26T05:10:10.165Z,95684.50
2022-07-26T05:15:13.932Z,95680.66
2022-07-26T05:20:16.895Z,95672.69
2022-07-26T05:25:18.541Z,95692.41
2022-07-26T05:30:20.310Z,95682.97
2022-07-26T05:35:22.109Z,95682.19
2022-07-26T05:40:23.830Z,95682.03
2022-07-26T05:45:25.528Z,95687.69
2022-07-26T05:50:27.267Z,95687.19
2022-07-26T05:55:28.895Z,95693.81
2022-07-26T06:00:30.925Z,95693.44
2022-07-26T06:05:32.576Z,95691.63
2022-07-26T06:10:34.163Z,95691.34
2022-07-26T06:15:37.988Z,95702.03
2022-07-26T06:20:41.751Z,95691.16
2022-07-26T06:25:43.541Z,95694.41
2022-07-26T06:30:45.562Z,95694.13
2022-07-26T06:35:47.252Z,95696.91
2022-07-26T06:40:49.037Z,95694.03
2022-07-26T06:45:50.982Z,95715.13
2022-07-26T06:50:52.754Z,95713.28
2022-07-26T06:55:54.469Z,95709.44
2022-07-26T07:00:56.249Z,95718.09
2022-07-26T07:05:57.893Z,95713.28
2022-07-26T07:10:59.545Z,95715.41
2022-07-26T07:16:03.546Z,95707.81
2022-07-26T07:21:05.753Z,95717.94
2022-07-26T07:26:07.477Z,95723.00
2022-07-26T07:31:09.164Z,95720.03
2022-07-26T07:36:11.021Z,95723.88
2022-07-26T07:41:12.703Z,95708.75
2022-07-26T07:46:14.382Z,95704.53
2022-07-26T07:51:16.173Z,95700.50
2022-07-26T07:56:19.529Z,95701.25
2022-07-26T08:01:23.538Z,95702.41
2022-07-26T08:06:41.852Z,95703.84
2022-07-26T08:11:52.175Z,95701.34
2022-07-26T08:16:54.105Z,95701.88
2022-07-26T08:21:55.820Z,95712.38
2022-07-26T08:26:59.343Z,95699.84
2022-07-26T08:32:01.622Z,95711.31
2022-07-26T08:37:16.878Z,95713.31
2022-07-26T08:42:24.943Z,95711.47
2022-07-26T08:47:35.329Z,95708.31
2022-07-26T08:52:43.044Z,95702.44
2022-07-26T08:57:45.801Z,95701.44
2022-07-26T09:02:48.717Z,95715.19
2022-07-26T09:07:50.871Z,95707.91
2022-07-26T09:12:58.462Z,95717.13
2022-07-26T09:18:00.125Z,95732.06
2022-07-26T09:23:07.809Z,95726.00
2022-07-26T09:28:24.556Z,95724.97
2022-07-26T09:33:26.721Z,95716.34
2022-07-26T09:38:42.398Z,95712.81
2022-07-26T09:43:44.039Z,95706.84
2022-07-26T09:49:10.022Z,95705.44
2022-07-26T09:54:09.694Z,95699.72
2022-07-26T09:59:14.908Z,95717.16
2022-07-26T10:04:17.125Z,95706.06
2022-07-26T10:09:19.369Z,95715.22
2022-07-26T10:14:33.078Z,95707.13
2022-07-26T10:19:45.734Z,95698.31
2022-07-26T10:24:51.119Z,95698.84
2022-07-26T10:30:34.404Z,95703.09
2022-07-26T10:35:41.442Z,95691.63
2022-07-26T10:41:00.835Z,95704.94
2022-07-26T10:46:18.644Z,95701.28
2022-07-26T10:51:29.684Z,95705.63
2022-07-26T10:56:33.712Z,95704.59
2022-07-26T11:01:42.189Z,95705.09
2022-07-26T11:06:45.627Z,95702.66
2022-07-26T11:11:47.617Z,95704.25
2022-07-26T11:16:50.554Z,95689.81
2022-07-26T11:21:58.646Z,95694.97
2022-07-26T11:27:03.873Z,95673.59
2022-07-26T11:32:14.570Z,95691.28
2022-07-26T11:37:18.869Z,95678.56
2022-07-26T11:42:22.043Z,95667.13
2022-07-26T11:47:26.134Z,95662.06
2022-07-26T11:52:32.043Z,95691.66
2022-07-26T11:57:34.111Z,95663.03
2022-07-26T12:02:35.847Z,95664.59
2022-07-26T12:07:37.506Z,95674.19
2022-07-26T12:12:39.776Z,95658.31
2022-07-26T12:17:58.684Z,95659.06
2022-07-26T12:23:05.028Z,95654.56
2022-07-26T12:28:07.690Z,95670.13
2022-07-26T12:33:09.341Z,95660.38
2022-07-26T12:38:11.071Z,95638.53
2022-07-26T12:43:13.487Z,95646.22
2022-07-26T12:48:15.961Z,95660.78
2022-07-26T12:53:24.767Z,95639.63
2022-07-26T12:58:26.734Z,95618.75
2022-07-26T13:03:29.712Z,95617.00
2022-07-26T13:08:31.504Z,95629.50
2022-07-26T13:13:33.346Z,95634.84
2022-07-26T13:18:34.955Z,95625.38
2022-07-26T13:23:36.718Z,95633.06
2022-07-26T13:28:40.792Z,95627.94
2022-07-26T13:33:42.797Z,95627.16
2022-07-26T13:38:44.867Z,95621.56
2022-07-26T13:43:46.559Z,95623.31
2022-07-26T13:49:00.589Z,95624.13
2022-07-26T13:54:05.906Z,95627.16
2022-07-26T13:59:07.795Z,95613.09
2022-07-26T14:04:10.631Z,95623.28
2022-07-26T14:09:13.012Z,95618.91
2022-07-26T14:14:15.383Z,95614.06
2022-07-26T14:19:17.908Z,95626.06
2022-07-26T14:24:20.976Z,95640.91
2022-07-26T14:29:22.803Z,95636.84
2022-07-26T14:34:24.676Z,95630.72
2022-07-26T14:39:27.037Z,95623.28
2022-07-26T14:44:29.697Z,95630.69
2022-07-26T14:49:31.637Z,95633.72
2022-07-26T14:54:33.277Z,95625.47
2022-07-26T14:59:34.971Z,95640.06
2022-07-26T15:04:36.651Z,95628.34
2022-07-26T15:09:38.597Z,95623.22
2022-07-26T15:14:42.023Z,95623.22
2022-07-26T15:19:43.713Z,95624.25
2022-07-26T15:24:45.494Z,95626.81
2022-07-26T15:29:48.619Z,95628.06
2022-07-26T15:34:50.572Z,95631.34
2022-07-26T15:39:52.773Z,95636.19
2022-07-26T15:44:58.629Z,95640.28
2022-07-26T15:50:00.311Z,95632.88
2022-07-26T15:55:02.429Z,95638.78
2022-07-26T16:00:11.507Z,95623.34
2022-07-26T16:05:13.906Z,95639.19
2022-07-26T16:10:16.471Z,95639.00
2022-07-26T16:15:19.108Z,95631.03
2022-07-26T16:20:20.919Z,95626.09
2022-07-26T16:25:22.947Z,95627.03
2022-07-26T16:30:25.035Z,95635.44
2022-07-26T16:35:27.087Z,95616.25
2022-07-26T16:40:28.812Z,95627.28
2022-07-26T16:45:30.532Z,95639.06
2022-07-26T16:50:34.643Z,95633.16
2022-07-26T16:55:36.397Z,95626.81
2022-07-26T17:00:38.158Z,95623.94
2022-07-26T17:05:39.961Z,95622.06
2022-07-26T17:10:42.139Z,95635.34
2022-07-26T17:15:43.798Z,95626.13
2022-07-26T17:20:48.946Z,95618.41
2022-07-26T17:25:50.868Z,95629.09
2022-07-26T17:30:52.847Z,95621.91
2022-07-26T17:35:54.479Z,95629.63
2022-07-26T17:40:59.006Z,95631.97
2022-07-26T17:46:00.641Z,95642.03
2022-07-26T17:51:02.250Z,95636.16
2022-07-26T17:56:04.317Z,95636.94
2022-07-26T18:01:06.778Z,95637.91
2022-07-26T18:06:08.600Z,95629.41
2022-07-26T18:11:10.424Z,95636.69
2022-07-26T18:16:14.281Z,95635.50
2022-07-26T18:21:16.112Z,95642.53
2022-07-26T18:26:18.207Z,95641.59
2022-07-26T18:31:20.000Z,95647.53
2022-07-26T18:36:21.693Z,95653.44
2022-07-26T18:41:23.419Z,95656.31
2022-07-26T18:46:25.655Z,95663.19
2022-07-26T18:51:27.478Z,95660.88
2022-07-26T18:56:29.440Z,95668.00
2022-07-26T19:01:31.136Z,95668.50
2022-07-26T19:06:33.649Z,95671.59
2022-07-26T19:11:37.562Z,95686.56
2022-07-26T19:16:39.765Z,95688.56
2022-07-26T19:21:46.357Z,95701.81
2022-07-26T19:26:48.198Z,95702.53
2022-07-26T19:31:49.825Z,95715.75
2022-07-26T19:36:52.845Z,95714.41
2022-07-26T19:41:54.879Z,95712.31
2022-07-26T19:46:58.017Z,95727.28
2022-07-26T19:51:59.946Z,95714.75
2022-07-26T19:57:14.635Z,95723.56
2022-07-26T20:02:31.565Z,95719.16
2022-07-26T20:13:02.107Z,95718.16
2022-07-26T20:18:04.891Z,95727.94
2022-07-26T20:23:10.859Z,95724.50
2022-07-26T20:28:12.472Z,95715.13
2022-07-26T20:33:15.075Z,95729.69
2022-07-26T20:38:18.433Z,95733.63
2022-07-26T20:43:22.052Z,95739.16
2022-07-26T20:48:24.085Z,95739.81
2022-07-26T20:53:37.589Z,95737.09
2022-07-26T20:58:39.209Z,95738.72
2022-07-26T21:03:41.249Z,95741.84
2022-07-26T21:08:43.128Z,95741.50
2022-07-26T21:13:48.257Z,95745.47
2022-07-26T21:18:52.930Z,95745.84
2022-07-26T21:23:54.843Z,95751.38
2022-07-26T21:28:56.540Z,95749.25
2022-07-26T21:33:58.937Z,95747.44
2022-07-26T21:39:00.681Z,95753.09
2022-07-26T21:44:03.293Z,95755.91
2022-07-26T21:49:05.200Z,95757.75
2022-07-26T21:54:07.715Z,95758.06
2022-07-26T21:59:09.971Z,95758.81
2022-07-26T22:04:11.932Z,95763.88
2022-07-26T22:09:14.199Z,95762.00
2022-07-26T22:14:17.502Z,95756.44
2022-07-26T22:19:20.007Z,95759.88
2022-07-26T22:24:21.730Z,95765.38
2022-07-26T22:29:23.502Z,95767.75
2022-07-26T22:34:25.295Z,95766.78
2022-07-26T22:39:26.991Z,95764.63
2022-07-26T22:44:28.944Z,95769.94
2022-07-26T22:49:30.541Z,95780.84
2022-07-26T22:54:32.301Z,95776.13
2022-07-26T22:59:33.998Z,95771.00
2022-07-26T23:04:35.669Z,95770.75
2022-07-26T23:09:37.388Z,95766.13
2022-07-26T23:14:39.021Z,95770.44
2022-07-26T23:19:40.864Z,95751.53
2022-07-26T23:24:43.678Z,95765.91
2022-07-26T23:29:45.450Z,95764.47
2022-07-26T23:34:49.927Z,95763.06
2022-07-26T23:39:51.599Z,95759.03
2022-07-26T23:44:53.269Z,95750.38
2022-07-26T23:49:54.974Z,95751.44
2022-07-26T23:54:56.586Z,95737.81
2022-07-26T23:59:58.159Z,95731.44
